Αρχική σελίδα
METAR-TAF:

METAR-TAF

Αεροδρόμια :

Βικτώρια, Μαέ, Σεϋχέλλες

γεωγραφικό πλάτος: 04-40S, γεωγραφικό μήκος: 055-31E, υψόμετρο: 3 μ

Παρών καιρός

Η αναφορά έγινε 1 ώρα και 4 λεπτά πριν, στις 02:00 UTC
Άνεμος 11 kt από ΝA με ριπές μέχρι 21 kt, μεταβλητός μεταξύ Α και Ν/NA
Θερμοκρασία 26°C
Υγρασία 84%
Πίεση 1011 hPa
Ορατότητα 10 χλμ και άνω
Διάσπαρτα νέφη σε ύψος 1500 πόδια

METAR: FSIA 240200Z 13011G21KT 090V160 9999 R13///// SCT015 26/23 Q1011 NOSIG

Χρόνος: 07:04 (03:04 UTC)

Πρόγνωση Καιρού

Η αναφορά έγινε 4 ώρες και 3 λεπτά πριν, στις 23:01 UTC
Η πρόγνωση ισχύει από τις 24 στις 00 UTC έως τις 24 στις 24 UTC
Άνεμος 15 kt από Ν/NA
Ορατότητα 10 χλμ και άνω
Διάσπαρτα νέφη σε ύψος 2200 πόδια
Πιθανότητα 40% :
Προσωρινά
από 24 στις 10 UTC έως τις 24 στις 18 UTC
Αρκετά νέφη σε ύψος 1800 πόδια
Ασθενείς όμβροι

TAF: FSIA 232301Z 2400/2424 15015KT 9999 SCT022 PROB40 TEMPO 2410/2418 -SHRA BKN018

Μετεωρολογικές αναφορές και προγνώσεις για περισσότερα από 4000 αεροδρόμια (δελτία METAR και TAF).

Οι διαθέσιμοι σταθμοί απεικονίζονται στο χάρτη με κίτρινες και κόκκινες κουκκίδες.

Μετακινήστε το ποντίκι πάνω από τις κουκκίδες για να δείτε το όνομα του σταθμού.

Στη συνέχεια, κάντε κλικ για να δείτε τις μετεωρολογικές αναφορές και τις προγνώσεις καιρού.

Για να αλλάξετε το χάρτη: κάντε κλικ στα πράσινα κουμπιά με τον μαύρο σταυρό για να ζουμάρετε, στο πράσινο κουμπί με την παύλα για να αφαιρέσετε το ζουμ ή στα πράσινα βέλη για να αντιπαραβάλλετε χάρτες.


METAR-TAF: